Time;durP1;ratioP1;P1;durP2;ratioP2;P2;SDS_P1;SDS_P2;PMS_P1;PMS_P2;Temp;Humidity;BMP_temperature;BMP_pressure;BME280_temperature;BME280_humidity;BME280_pressure;Samples;Min_cycle;Max_cycle;Signal;HPM_P1;HPM_P2
2021/12/22 00:01:15;;;;;;;3.60;2.67;;;-2.20;96.30;;;;;;4878387;29;20457;-77
2021/12/22 00:04:05;;;;;;;3.13;2.77;;;-2.30;96.30;;;;;;4875725;29;20503;-77
2021/12/22 00:06:42;;;;;;;5.43;3.17;;;-2.30;96.30;;;;;;4874927;29;20437;-77
2021/12/22 00:09:08;;;;;;;3.93;2.77;;;-2.30;96.30;;;;;;4860271;29;20529;-77
2021/12/22 00:11:34;;;;;;;3.70;3.23;;;-2.30;96.30;;;;;;4875415;29;20935;-77
2021/12/22 00:14:00;;;;;;;4.63;2.77;;;-2.30;96.30;;;;;;4875330;29;20419;-77
2021/12/22 00:16:25;;;;;;;3.90;2.90;;;-2.40;96.30;;;;;;4874919;29;20350;-77
2021/12/22 00:18:51;;;;;;;3.47;2.80;;;-2.40;96.30;;;;;;4874325;29;20217;-77
2021/12/22 00:21:16;;;;;;;6.40;3.60;;;-2.30;96.30;;;;;;4873887;29;20202;-77
2021/12/22 00:23:43;;;;;;;3.97;3.13;;;-2.30;96.30;;;;;;4874149;29;20190;-77
2021/12/22 00:26:08;;;;;;;5.67;3.40;;;-2.30;96.30;;;;;;4873945;29;20174;-77
2021/12/22 00:28:34;;;;;;;7.47;3.80;;;-2.30;96.30;;;;;;4873985;29;20419;-77
2021/12/22 00:31:00;;;;;;;6.43;3.57;;;-2.30;96.30;;;;;;4873652;29;20258;-77
2021/12/22 00:33:32;;;;;;;3.97;3.40;;;-2.30;96.30;;;;;;4873805;29;20261;-77
2021/12/22 00:35:57;;;;;;;8.33;3.17;;;-2.30;96.30;;;;;;4872681;29;20395;-77
2021/12/22 00:38:23;;;;;;;3.57;2.97;;;-2.30;96.30;;;;;;4873274;29;20423;-77
2021/12/22 00:40:50;;;;;;;3.10;2.80;;;-2.20;96.30;;;;;;4873667;29;20205;-77
2021/12/22 00:43:16;;;;;;;4.00;3.37;;;-2.20;96.30;;;;;;4874614;29;20167;-77
2021/12/22 00:45:42;;;;;;;4.67;3.40;;;-2.20;96.30;;;;;;4872651;29;20417;-77
2021/12/22 00:48:09;;;;;;;5.20;3.87;;;-2.20;96.30;;;;;;4872974;29;20423;-77
2021/12/22 00:50:37;;;;;;;10.60;3.10;;;-2.20;96.30;;;;;;4873275;29;20209;-77
2021/12/22 00:53:03;;;;;;;4.60;3.10;;;-2.20;96.30;;;;;;4872956;29;20423;-77
2021/12/22 00:55:29;;;;;;;9.33;3.40;;;-2.20;96.30;;;;;;4872702;29;20686;-77
2021/12/22 00:57:55;;;;;;;3.47;2.90;;;-2.20;96.30;;;;;;4872164;29;20210;-77
2021/12/22 05:01:40;;;;;;;5.50;4.30;;;-5.70;96.30;;;;;;5542372;23;20493;-77
2021/12/22 05:04:15;;;;;;;5.93;3.60;;;-5.60;96.30;;;;;;4891671;29;20414;-78
2021/12/22 05:06:42;;;;;;;5.80;3.13;;;-5.70;96.30;;;;;;4888947;29;20438;-76
2021/12/22 05:09:10;;;;;;;4.47;2.93;;;-5.80;96.30;;;;;;4888581;29;20449;-77
2021/12/22 05:11:36;;;;;;;4.60;3.87;;;-5.90;96.30;;;;;;4888688;29;20450;-76
2021/12/22 05:14:03;;;;;;;4.37;3.10;;;-5.90;96.30;;;;;;4870769;29;20989;-76
2021/12/22 05:16:30;;;;;;;6.20;3.30;;;-6.00;96.30;;;;;;4881112;29;20261;-77
2021/12/22 05:19:10;;;;;;;5.80;3.70;;;-6.10;96.30;;;;;;4878581;29;20932;-77
2021/12/22 05:25:09;;;;;;;4.80;4.00;;;-5.90;96.30;;;;;;5902026;23;20713;-77
2021/12/22 05:27:36;;;;;;;4.67;3.43;;;-5.80;96.30;;;;;;4877456;29;20500;-77
2021/12/22 05:30:05;;;;;;;7.20;5.00;;;-5.80;96.30;;;;;;4878120;29;20434;-77
2021/12/22 05:32:32;;;;;;;7.83;5.00;;;-5.60;96.30;;;;;;4878187;29;20460;-77
2021/12/22 05:35:03;;;;;;;8.33;6.23;;;-5.60;96.30;;;;;;4878098;29;20441;-77
2021/12/22 05:37:28;;;;;;;8.20;6.83;;;-5.70;96.30;;;;;;4877201;29;20470;-76
2021/12/22 05:39:56;;;;;;;19.00;12.40;;;-5.90;96.30;;;;;;4879040;29;20475;-76
2021/12/22 05:42:25;;;;;;;29.50;18.97;;;-5.80;96.30;;;;;;4877824;29;20198;-76
2021/12/22 05:44:51;;;;;;;45.03;25.50;;;-5.60;96.30;;;;;;4879154;29;20917;-77
2021/12/22 05:47:16;;;;;;;26.57;15.10;;;-5.50;96.30;;;;;;4878583;29;20418;-78
2021/12/22 05:49:43;;;;;;;16.67;9.83;;;-5.50;96.30;;;;;;4879119;29;20177;-76
2021/12/22 05:52:09;;;;;;;71.33;30.80;;;-5.40;96.30;;;;;;4879084;29;20576;-77
2021/12/22 05:54:35;;;;;;;26.93;14.83;;;-5.30;96.30;;;;;;4877386;29;20930;-77
2021/12/22 05:57:01;;;;;;;10.90;8.03;;;-5.30;96.30;;;;;;4877052;29;20464;-77
2021/12/22 05:59:26;;;;;;;10.53;7.77;;;-5.30;96.30;;;;;;4879356;29;20174;-77
2021/12/22 06:01:52;;;;;;;7.70;4.77;;;-5.30;96.30;;;;;;4887188;29;20614;-77
2021/12/22 06:04:17;;;;;;;5.70;3.93;;;-5.30;96.30;;;;;;4891517;29;20264;-77
2021/12/22 06:06:43;;;;;;;5.57;4.50;;;-5.30;96.30;;;;;;4874322;29;20284;-77
2021/12/22 06:09:09;;;;;;;9.63;5.70;;;-5.40;96.30;;;;;;4865470;29;20654;-77
2021/12/22 06:11:34;;;;;;;5.40;3.63;;;-5.50;96.30;;;;;;4877338;29;20575;-77
2021/12/22 06:14:00;;;;;;;6.70;4.33;;;-5.60;96.30;;;;;;4878740;29;20426;-78
2021/12/22 06:16:27;;;;;;;7.57;5.00;;;-5.60;96.30;;;;;;4876784;29;20682;-77
2021/12/22 06:19:01;;;;;;;9.57;5.93;;;-5.50;96.30;;;;;;4877414;29;20185;-77
2021/12/22 06:21:26;;;;;;;11.50;6.27;;;-5.50;96.30;;;;;;4878487;29;20919;-77
2021/12/22 06:23:52;;;;;;;12.70;6.37;;;-5.50;96.30;;;;;;4878373;29;20551;-76
2021/12/22 06:26:17;;;;;;;7.80;5.97;;;-5.60;96.30;;;;;;4877777;29;20796;-77
2021/12/22 06:28:43;;;;;;;12.27;5.70;;;-5.70;96.30;;;;;;4878497;29;20177;-77
2021/12/22 06:31:09;;;;;;;8.00;5.53;;;-5.70;96.30;;;;;;4878415;29;20190;-77
2021/12/22 06:33:34;;;;;;;9.23;5.60;;;-5.80;96.30;;;;;;4878216;29;20268;-76
2021/12/22 06:36:00;;;;;;;8.87;6.20;;;-5.90;96.30;;;;;;4877428;29;20186;-77
2021/12/22 06:38:29;;;;;;;17.67;9.90;;;-6.00;96.30;;;;;;4877430;29;20209;-76
2021/12/22 06:40:54;;;;;;;16.30;9.77;;;-6.10;96.30;;;;;;4867798;29;20204;-76
2021/12/22 06:43:26;;;;;;;10.90;7.17;;;-6.10;96.30;;;;;;4884220;29;20458;-76
2021/12/22 06:45:53;;;;;;;11.63;6.40;;;-6.10;96.30;;;;;;4888590;29;20174;-76
2021/12/22 06:48:21;;;;;;;11.63;6.10;;;-6.20;96.30;;;;;;4887606;29;20426;-75
2021/12/22 06:50:47;;;;;;;14.20;6.17;;;-6.20;96.30;;;;;;4885672;29;20473;-75
2021/12/22 06:53:14;;;;;;;7.83;5.70;;;-6.30;96.30;;;;;;4887563;29;20967;-75
2021/12/22 06:55:40;;;;;;;8.00;6.27;;;-6.40;96.30;;;;;;4885190;29;20437;-76
2021/12/22 06:58:06;;;;;;;9.30;5.90;;;-6.40;96.30;;;;;;4880010;29;20466;-76
2021/12/22 07:00:32;;;;;;;6.07;5.47;;;-6.40;96.30;;;;;;4886245;29;20241;-75
2021/12/22 07:02:58;;;;;;;9.40;5.67;;;-6.30;96.30;;;;;;4886275;29;20220;-75
2021/12/22 07:05:24;;;;;;;6.13;5.17;;;-6.30;96.30;;;;;;4886224;29;20182;-75
2021/12/22 07:07:50;;;;;;;10.80;6.30;;;-6.30;96.30;;;;;;4887910;29;20443;-75
2021/12/22 07:10:16;;;;;;;12.60;6.30;;;-6.30;96.30;;;;;;4885502;29;20661;-75
2021/12/22 07:12:46;;;;;;;12.20;6.93;;;-6.20;96.30;;;;;;4886695;29;20182;-76
2021/12/22 07:15:14;;;;;;;7.80;5.83;;;-6.20;96.30;;;;;;4876486;29;20443;-76
2021/12/22 07:17:46;;;;;;;8.57;5.70;;;-6.20;96.30;;;;;;4879619;29;20530;-76
2021/12/22 07:20:12;;;;;;;13.93;6.73;;;-6.20;96.30;;;;;;4886110;29;20459;-76
2021/12/22 07:22:38;;;;;;;7.90;6.40;;;-6.10;96.30;;;;;;4883084;29;20425;-76
2021/12/22 07:25:06;;;;;;;11.10;6.30;;;-6.10;96.30;;;;;;4884095;29;20427;-75
2021/12/22 07:27:31;;;;;;;7.20;5.27;;;-6.10;96.30;;;;;;4863997;29;20241;-76
2021/12/22 07:29:57;;;;;;;5.20;4.70;;;-6.10;96.30;;;;;;4863020;29;20799;-75
2021/12/22 07:32:23;;;;;;;14.43;6.00;;;-6.20;96.30;;;;;;4873825;29;20349;-76
2021/12/22 07:35:23;;;;;;;7.40;4.73;;;-6.20;96.30;;;;;;4881742;29;20199;-75
2021/12/22 07:38:02;;;;;;;6.87;4.77;;;-6.20;96.30;;;;;;4879433;29;20480;-75
2021/12/22 07:40:27;;;;;;;7.73;5.70;;;-6.20;96.30;;;;;;4880228;29;20795;-76
2021/12/22 07:42:53;;;;;;;7.23;5.40;;;-6.10;96.30;;;;;;4879184;29;20517;-76
2021/12/22 07:45:18;;;;;;;11.70;5.10;;;-6.00;96.30;;;;;;4879631;29;20192;-75
2021/12/22 07:47:44;;;;;;;9.77;6.33;;;-5.90;96.30;;;;;;4881612;29;20260;-76
2021/12/22 07:50:10;;;;;;;11.13;6.03;;;-5.90;96.30;;;;;;4883585;29;20201;-76
2021/12/22 07:52:35;;;;;;;13.00;7.43;;;-5.70;96.30;;;;;;4883396;29;20189;-76
2021/12/22 07:55:02;;;;;;;8.93;6.50;;;-5.60;96.30;;;;;;4881076;29;20278;-77
2021/12/22 07:57:28;;;;;;;8.73;5.83;;;-5.60;96.30;;;;;;4860557;29;20671;-76
2021/12/22 07:59:53;;;;;;;7.93;5.70;;;-5.50;96.30;;;;;;4860949;29;20452;-76
2021/12/22 08:02:19;;;;;;;9.43;5.43;;;-5.40;96.30;;;;;;4871084;29;20229;-76
2021/12/22 08:04:44;;;;;;;6.83;5.77;;;-5.30;96.30;;;;;;4870835;29;20181;-77
2021/12/22 08:07:10;;;;;;;6.50;5.53;;;-5.30;96.30;;;;;;4880285;29;20237;-76
2021/12/22 08:09:36;;;;;;;7.80;5.50;;;-5.20;96.30;;;;;;4871835;29;20190;-76
2021/12/22 08:12:05;;;;;;;7.53;5.00;;;-5.20;96.30;;;;;;4869640;29;20285;-77
2021/12/22 08:14:36;;;;;;;10.60;7.33;;;-5.10;96.30;;;;;;4874079;29;20677;-76
2021/12/22 08:17:01;;;;;;;6.60;5.77;;;-5.00;96.30;;;;;;4871578;29;20458;-76
2021/12/22 08:19:27;;;;;;;11.00;5.67;;;-4.90;96.30;;;;;;4880986;29;20429;-76
2021/12/22 08:21:54;;;;;;;9.53;6.30;;;-4.70;96.30;;;;;;4879737;29;20212;-76
2021/12/22 08:24:19;;;;;;;10.00;7.57;;;-4.60;96.30;;;;;;4876822;29;21425;-77
2021/12/22 08:26:45;;;;;;;10.57;6.80;;;-4.40;96.30;;;;;;4878865;29;20456;-76
2021/12/22 08:29:10;;;;;;;7.30;5.53;;;-4.30;96.30;;;;;;4891722;29;20220;-76
2021/12/22 08:31:36;;;;;;;7.60;5.00;;;-4.20;96.30;;;;;;4876721;29;20217;-77
2021/12/22 08:34:03;;;;;;;8.00;5.47;;;-4.10;96.30;;;;;;4879083;29;20654;-76
2021/12/22 08:39:14;;;;;;;7.70;5.10;;;-4.00;96.30;;;;;;4880592;29;20760;-77
2021/12/22 08:41:43;;;;;;;7.80;5.00;;;-4.00;96.30;;;;;;4880002;29;20442;-77
2021/12/22 08:44:10;;;;;;;9.40;6.00;;;-3.90;96.30;;;;;;4880186;29;20425;-76
2021/12/22 08:46:39;;;;;;;5.90;4.87;;;-3.80;96.30;;;;;;4881820;29;20938;-76
2021/12/22 08:49:06;;;;;;;10.20;6.20;;;-3.70;96.30;;;;;;4883312;29;20434;-76
2021/12/22 08:51:32;;;;;;;9.77;6.00;;;-3.60;96.30;;;;;;4879649;29;21222;-77
2021/12/22 08:54:00;;;;;;;6.77;5.00;;;-3.50;96.30;;;;;;4878413;29;20816;-77
2021/12/22 08:56:26;;;;;;;8.07;5.20;;;-3.40;96.30;;;;;;4879452;29;20427;-76
2021/12/22 08:58:54;;;;;;;6.27;4.90;;;-3.40;96.30;;;;;;4880010;29;20421;-76
2021/12/22 09:01:20;;;;;;;4.80;4.40;;;-3.30;96.30;;;;;;4878367;29;20452;-76
2021/12/22 09:03:45;;;;;;;9.80;5.90;;;-3.20;96.30;;;;;;4878647;29;20487;-76
2021/12/22 09:06:12;;;;;;;9.30;6.63;;;-3.20;96.30;;;;;;4879581;29;20854;-76
2021/12/22 09:08:37;;;;;;;8.30;6.13;;;-3.10;96.30;;;;;;4877888;29;20193;-76
2021/12/22 09:11:03;;;;;;;8.80;6.50;;;-3.00;96.30;;;;;;4877963;29;20804;-77
2021/12/22 09:13:28;;;;;;;12.03;6.67;;;-3.00;96.30;;;;;;4879355;29;20236;-78
2021/12/22 09:15:54;;;;;;;13.10;7.07;;;-2.90;96.30;;;;;;4883353;29;20185;-76
2021/12/22 09:18:19;;;;;;;13.70;6.23;;;-2.90;96.30;;;;;;4882091;29;20670;-76
2021/12/22 09:20:46;;;;;;;9.83;6.07;;;-2.80;96.30;;;;;;4878199;29;20221;-77
2021/12/22 09:23:13;;;;;;;10.67;6.53;;;-2.70;96.30;;;;;;4878218;29;20177;-76
2021/12/22 09:25:39;;;;;;;8.10;6.63;;;-2.70;96.30;;;;;;4873702;29;20453;-78
2021/12/22 09:28:06;;;;;;;7.20;6.33;;;-2.60;96.30;;;;;;4874178;29;20429;-77
2021/12/22 09:30:35;;;;;;;10.60;6.47;;;-2.60;96.30;;;;;;4875827;29;20209;-76
2021/12/22 09:33:03;;;;;;;9.07;6.60;;;-2.50;96.30;;;;;;4878321;29;20426;-77
2021/12/22 09:35:29;;;;;;;8.63;6.03;;;-2.50;96.30;;;;;;4878034;29;20944;-77
2021/12/22 09:37:54;;;;;;;9.10;6.23;;;-2.40;96.30;;;;;;4879077;29;21005;-76
2021/12/22 09:40:20;;;;;;;12.13;6.90;;;-2.40;96.30;;;;;;4878999;29;20189;-77
2021/12/22 09:42:45;;;;;;;6.77;5.27;;;-2.40;96.30;;;;;;4877904;29;20190;-77
2021/12/22 09:45:11;;;;;;;8.97;6.20;;;-2.30;96.30;;;;;;4877730;29;20177;-76
2021/12/22 09:47:51;;;;;;;7.27;5.23;;;-2.20;96.30;;;;;;4884107;29;20189;-77
2021/12/22 09:50:34;;;;;;;8.20;4.80;;;-2.20;96.30;;;;;;4887002;29;20193;-77
2021/12/22 09:53:00;;;;;;;11.23;5.83;;;-2.10;96.30;;;;;;4883355;29;20864;-77
2021/12/22 09:55:25;;;;;;;10.17;5.90;;;-2.00;96.30;;;;;;4886230;29;20441;-77
2021/12/22 09:57:51;;;;;;;6.90;4.70;;;-1.90;96.30;;;;;;4883474;29;20224;-78
2021/12/22 10:00:16;;;;;;;6.67;5.40;;;-2.00;96.30;;;;;;4884759;29;20614;-77
2021/12/22 10:02:42;;;;;;;9.83;5.30;;;-1.90;96.30;;;;;;4884126;29;20300;-77
2021/12/22 10:05:08;;;;;;;7.83;5.17;;;-1.90;96.30;;;;;;4886329;29;20181;-76
2021/12/22 10:07:37;;;;;;;7.13;5.17;;;-1.80;96.30;;;;;;4885179;29;20261;-77
2021/12/22 10:10:09;;;;;;;4.97;4.47;;;-1.80;96.30;;;;;;4886038;29;20181;-78
2021/12/22 10:12:35;;;;;;;7.93;5.27;;;-1.80;96.30;;;;;;4882018;29;20449;-77
2021/12/22 10:15:04;;;;;;;7.53;6.20;;;-1.70;96.30;;;;;;4883453;29;20804;-76
2021/12/22 10:17:37;;;;;;;8.60;5.60;;;-1.70;96.30;;;;;;4870298;29;20712;-77
2021/12/22 10:20:10;;;;;;;11.40;5.33;;;-1.60;96.30;;;;;;4878061;29;20438;-76
2021/12/22 10:22:39;;;;;;;12.13;6.37;;;-1.50;96.30;;;;;;4881605;29;20490;-79
2021/12/22 10:25:31;;;;;;;8.03;5.53;;;-1.30;96.30;;;;;;4884330;29;20421;-78
2021/12/22 10:28:02;;;;;;;7.30;5.63;;;-0.30;96.30;;;;;;4884091;29;20432;-77
2021/12/22 10:30:31;;;;;;;9.03;6.23;;;1.10;96.30;;;;;;4885645;29;20891;-78
2021/12/22 10:33:32;;;;;;;7.50;5.70;;;2.00;96.30;;;;;;4879029;29;20426;-78
2021/12/22 10:36:08;;;;;;;8.60;6.23;;;3.10;96.30;;;;;;4787624;29;20816;-78
2021/12/22 10:38:34;;;;;;;8.37;5.27;;;3.60;96.30;;;;;;4875688;29;20468;-79
2021/12/22 10:41:08;;;;;;;7.33;5.40;;;3.90;96.30;;;;;;4882580;29;20438;-79
2021/12/22 10:43:41;;;;;;;7.67;5.13;;;3.90;96.30;;;;;;4875342;29;20197;-79
2021/12/22 10:46:13;;;;;;;9.10;5.57;;;3.80;96.30;;;;;;4881804;29;20445;-79
2021/12/22 10:51:28;;;;;;;5.67;4.13;;;4.50;96.30;;;;;;4885823;29;20436;-79
2021/12/22 10:54:17;;;;;;;7.63;5.03;;;5.00;96.30;;;;;;4880417;29;20494;-78
2021/12/22 10:56:45;;;;;;;5.40;4.37;;;5.60;96.30;;;;;;4873725;29;20481;-78
2021/12/22 10:59:19;;;;;;;6.30;4.23;;;5.70;96.30;;;;;;4887956;29;20429;-78
2021/12/22 11:01:54;;;;;;;7.90;4.50;;;5.60;96.30;;;;;;4875915;29;20460;-76
2021/12/22 11:04:30;;;;;;;5.77;4.80;;;5.40;96.30;;;;;;4879030;29;20429;-77
2021/12/22 11:07:41;;;;;;;9.60;4.50;;;4.90;96.30;;;;;;4880273;29;20800;-76
2021/12/22 11:10:31;;;;;;;6.60;4.60;;;4.50;96.30;;;;;;4856949;29;20443;-75
2021/12/22 11:13:28;;;;;;;6.73;4.47;;;4.70;96.30;;;;;;4872431;29;20426;-76
2021/12/22 11:16:55;;;;;;;6.57;4.60;;;3.80;96.30;;;;;;4882145;29;20426;-75
2021/12/22 11:19:57;;;;;;;3.60;2.10;;;3.50;96.30;;;;;;4863432;29;20438;-75
2021/12/22 11:23:16;;;;;;;4.77;2.80;;;3.20;96.30;;;;;;4891247;29;20435;-75
2021/12/22 11:25:36;;;;;;;4.17;3.67;;;3.50;96.30;;;;;;4888777;29;20419;-75
2021/12/22 11:28:01;;;;;;;2.63;2.20;;;3.40;96.30;;;;;;4883953;29;20493;-75
2021/12/22 11:30:28;;;;;;;3.17;2.20;;;3.20;96.30;;;;;;4889821;29;20476;-75
2021/12/22 11:32:58;;;;;;;4.07;2.20;;;3.10;96.30;;;;;;4887947;29;20185;-79
2021/12/22 11:35:24;;;;;;;4.40;2.20;;;3.00;96.30;;;;;;4866639;29;20533;-80
2021/12/22 11:37:50;;;;;;;5.10;2.07;;;3.10;96.30;;;;;;4880797;29;20477;-79
2021/12/22 11:40:18;;;;;;;2.53;2.10;;;2.80;96.30;;;;;;4881033;29;20418;-78
2021/12/22 11:42:44;;;;;;;2.43;2.23;;;2.80;96.30;;;;;;4879331;29;20276;-79
2021/12/22 11:45:11;;;;;;;2.90;1.97;;;2.80;96.30;;;;;;4880033;29;20565;-78
2021/12/22 11:47:46;;;;;;;5.87;2.27;;;2.80;96.30;;;;;;4880704;29;20755;-78
2021/12/22 11:50:42;;;;;;;2.83;2.03;;;2.50;96.30;;;;;;4881301;29;20770;-78
2021/12/22 11:53:09;;;;;;;3.37;2.00;;;2.20;96.30;;;;;;4878298;29;20775;-78
2021/12/22 11:55:43;;;;;;;2.23;1.70;;;1.50;96.30;;;;;;4881051;29;20513;-80
2021/12/22 11:58:34;;;;;;;5.90;2.00;;;1.50;96.30;;;;;;4881039;29;20462;-79
2021/12/22 12:01:12;;;;;;;4.07;3.00;;;1.80;96.30;;;;;;4879860;29;20446;-78
2021/12/22 12:03:41;;;;;;;2.83;2.20;;;1.80;96.30;;;;;;4879280;29;20425;-79
2021/12/22 12:06:18;;;;;;;3.63;1.90;;;2.10;96.30;;;;;;4884852;29;20845;-79
2021/12/22 12:08:47;;;;;;;3.50;1.87;;;2.40;96.30;;;;;;4883498;29;20410;-78
2021/12/22 12:11:17;;;;;;;3.87;1.83;;;2.50;96.30;;;;;;4883330;29;20484;-79
2021/12/22 12:13:56;;;;;;;3.43;2.03;;;2.40;96.30;;;;;;4886619;29;20422;-78
2021/12/22 12:22:22;;;;;;;3.83;2.00;;;2.40;96.30;;;;;;4886671;29;20417;-77
2021/12/22 12:24:54;;;;;;;5.80;2.33;;;2.50;96.30;;;;;;4880893;29;20852;-77
2021/12/22 12:27:46;;;;;;;3.53;2.53;;;2.50;96.30;;;;;;4887113;29;20452;-77
2021/12/22 12:30:18;;;;;;;3.60;2.30;;;1.90;96.30;;;;;;4885329;29;20949;-78
2021/12/22 12:32:50;;;;;;;2.83;2.10;;;2.10;96.30;;;;;;4885368;29;20423;-78
2021/12/22 12:35:18;;;;;;;6.03;3.70;;;2.40;96.30;;;;;;4881475;29;20430;-78
2021/12/22 12:38:16;;;;;;;4.33;2.87;;;2.30;96.30;;;;;;4872331;29;20552;-79
2021/12/22 12:40:57;;;;;;;3.30;3.00;;;2.30;96.30;;;;;;4880167;29;20438;-78
2021/12/22 12:43:42;;;;;;;6.23;2.97;;;2.40;96.30;;;;;;4881773;29;20422;-77
2021/12/22 12:46:28;;;;;;;7.00;3.20;;;2.30;96.30;;;;;;4881476;29;20421;-78
2021/12/22 12:49:15;;;;;;;7.47;3.30;;;2.10;96.30;;;;;;4876505;29;20498;-78
2021/12/22 12:59:39;;;;;;;3.10;2.70;;;1.60;96.30;;;;;;4959217;23;20573;-77
2021/12/22 13:02:06;;;;;;;6.47;3.10;;;1.40;96.30;;;;;;4883059;29;20469;-77
2021/12/22 13:04:35;;;;;;;6.07;3.57;;;1.40;96.30;;;;;;4885175;29;20481;-77
2021/12/22 13:07:14;;;;;;;7.70;3.50;;;1.40;96.30;;;;;;4884391;29;20789;-76
2021/12/22 13:09:41;;;;;;;3.93;2.93;;;1.20;96.30;;;;;;4885571;29;20410;-76
2021/12/22 13:12:18;;;;;;;4.20;3.20;;;1.20;96.30;;;;;;4884455;29;20441;-76
2021/12/22 13:17:35;;;;;;;3.97;3.17;;;0.90;96.30;;;;;;4884063;29;20460;-76
2021/12/22 13:20:03;;;;;;;4.70;3.30;;;0.70;96.30;;;;;;4886944;29;20475;-77
2021/12/22 13:22:35;;;;;;;4.40;3.20;;;0.70;96.30;;;;;;4884819;29;20458;-77
2021/12/22 13:25:08;;;;;;;4.53;2.60;;;0.80;96.30;;;;;;4885908;29;20488;-77
2021/12/22 13:27:34;;;;;;;7.07;3.40;;;0.80;96.30;;;;;;4883478;29;20425;-76
2021/12/22 13:30:22;;;;;;;4.20;3.47;;;0.50;96.30;;;;;;4887100;29;20418;-76
2021/12/22 13:33:06;;;;;;;10.80;3.53;;;0.40;96.30;;;;;;4886976;29;20512;-77
2021/12/22 13:35:33;;;;;;;6.20;2.83;;;0.30;96.30;;;;;;4868787;29;20617;-76
2021/12/22 13:38:02;;;;;;;4.53;2.97;;;0.30;96.30;;;;;;4895749;29;20449;-76
2021/12/22 13:40:42;;;;;;;7.53;3.10;;;0.40;96.30;;;;;;4895346;29;20485;-76
2021/12/22 13:43:16;;;;;;;3.17;2.73;;;0.40;96.30;;;;;;4879217;29;20409;-76
2021/12/22 13:45:41;;;;;;;18.33;3.80;;;0.50;96.30;;;;;;4878319;29;20398;-75
2021/12/22 13:48:15;;;;;;;4.13;2.93;;;0.40;96.30;;;;;;4876270;29;20512;-76
2021/12/22 13:50:42;;;;;;;5.37;2.90;;;0.20;96.30;;;;;;4879028;29;20853;-76
2021/12/22 13:53:08;;;;;;;7.97;4.33;;;0.20;96.30;;;;;;4879142;29;20422;-76
2021/12/22 13:55:33;;;;;;;3.90;2.90;;;0.20;96.30;;;;;;4879204;29;20584;-76
2021/12/22 13:57:59;;;;;;;4.80;3.00;;;0.10;96.30;;;;;;4878886;29;20577;-76
2021/12/22 14:00:24;;;;;;;6.60;2.97;;;0.10;96.30;;;;;;4879130;29;20178;-76
2021/12/22 14:02:50;;;;;;;3.67;2.70;;;-0.10;96.30;;;;;;4878816;29;20178;-76
2021/12/22 14:05:18;;;;;;;3.10;2.50;;;-0.20;96.30;;;;;;4878869;29;20536;-76
2021/12/22 14:07:44;;;;;;;3.70;2.60;;;-0.30;96.30;;;;;;4878823;29;20178;-76
2021/12/22 14:10:15;;;;;;;5.03;2.50;;;-0.30;96.30;;;;;;4878824;29;20454;-76
2021/12/22 14:12:44;;;;;;;4.43;2.63;;;-0.40;96.30;;;;;;4877589;29;20472;-76
2021/12/22 14:15:10;;;;;;;4.37;3.20;;;-0.40;96.30;;;;;;4878917;29;20754;-76
2021/12/22 14:17:40;;;;;;;3.40;2.70;;;-0.50;96.30;;;;;;4878854;29;20517;-76
2021/12/22 14:20:26;;;;;;;3.73;3.17;;;-0.50;96.30;;;;;;4877572;29;21073;-75
2021/12/22 14:22:57;;;;;;;5.23;2.73;;;-0.50;96.30;;;;;;4877185;29;20597;-76
2021/12/22 14:25:25;;;;;;;4.10;2.90;;;-0.60;96.30;;;;;;4877458;29;20421;-75
2021/12/22 14:27:57;;;;;;;5.20;3.57;;;-0.60;96.30;;;;;;4877400;29;20931;-76
2021/12/22 14:30:27;;;;;;;4.80;2.60;;;-0.70;96.30;;;;;;4878524;29;20919;-75
2021/12/22 14:32:56;;;;;;;3.83;2.87;;;-0.80;96.30;;;;;;4878610;29;20425;-75
2021/12/22 14:35:23;;;;;;;4.13;2.73;;;-1.00;96.30;;;;;;4878763;29;20430;-76
2021/12/22 14:38:01;;;;;;;5.67;2.60;;;-1.10;96.30;;;;;;4877087;29;20986;-77
2021/12/22 14:40:29;;;;;;;3.53;2.70;;;-1.20;96.30;;;;;;4865705;29;20871;-77
2021/12/22 14:42:57;;;;;;;3.30;2.50;;;-1.30;96.30;;;;;;4859876;29;20777;-77
2021/12/22 14:45:41;;;;;;;3.57;2.40;;;-1.40;96.30;;;;;;4874005;29;20445;-76
2021/12/22 14:48:22;;;;;;;3.87;2.63;;;-1.40;96.30;;;;;;4880526;29;20429;-76
2021/12/22 14:50:54;;;;;;;4.30;3.60;;;-1.50;96.30;;;;;;4886534;29;20448;-77
2021/12/22 14:53:32;;;;;;;8.63;3.67;;;-1.60;96.30;;;;;;4881837;29;20841;-79
2021/12/22 14:55:58;;;;;;;3.90;2.93;;;-1.70;96.30;;;;;;4884274;29;20413;-77
2021/12/22 14:58:26;;;;;;;4.77;3.63;;;-1.80;96.30;;;;;;4884786;29;20461;-77
2021/12/22 15:00:52;;;;;;;4.73;3.00;;;-1.80;96.30;;;;;;4880140;29;20449;-78
2021/12/22 15:03:18;;;;;;;6.77;3.60;;;-1.90;96.30;;;;;;4882082;29;20422;-76
2021/12/22 15:06:02;;;;;;;4.33;2.90;;;-2.10;96.30;;;;;;4883605;29;20322;-76
2021/12/22 15:08:29;;;;;;;8.37;4.07;;;-2.10;96.30;;;;;;4887716;29;21014;-75
2021/12/22 15:10:56;;;;;;;6.90;5.10;;;-2.10;96.30;;;;;;4889336;29;20445;-76
2021/12/22 15:13:22;;;;;;;9.40;7.37;;;-2.10;96.30;;;;;;4886798;29;20468;-76
2021/12/22 15:15:48;;;;;;;16.10;9.70;;;-2.10;96.30;;;;;;4888033;29;20425;-76
2021/12/22 15:18:14;;;;;;;16.40;9.70;;;-2.10;96.30;;;;;;4881496;29;20205;-76
2021/12/22 15:20:40;;;;;;;9.70;6.77;;;-2.10;96.30;;;;;;4886097;29;20237;-76
2021/12/22 15:23:06;;;;;;;12.47;8.37;;;-2.10;96.30;;;;;;4886189;29;20452;-76
2021/12/22 15:25:32;;;;;;;21.43;16.80;;;-2.10;96.30;;;;;;4884926;29;20178;-76
2021/12/22 15:27:58;;;;;;;10.00;6.50;;;-2.20;96.30;;;;;;4887672;29;20424;-76
2021/12/22 15:30:23;;;;;;;6.20;3.40;;;-2.40;96.30;;;;;;4888403;29;20417;-76
2021/12/22 15:32:49;;;;;;;11.80;5.77;;;-2.40;96.30;;;;;;4888900;29;20184;-76
2021/12/22 15:35:15;;;;;;;7.57;4.57;;;-2.40;96.30;;;;;;4884542;29;20665;-75
2021/12/22 15:37:40;;;;;;;8.40;5.30;;;-2.40;96.30;;;;;;4882926;29;20817;-76
2021/12/22 15:40:07;;;;;;;13.70;8.97;;;-2.40;96.30;;;;;;4887279;29;20178;-76
2021/12/22 15:42:34;;;;;;;19.50;12.27;;;-2.50;96.30;;;;;;4888017;29;20222;-75
2021/12/22 15:45:00;;;;;;;14.57;8.70;;;-2.50;96.30;;;;;;4884360;29;20477;-74
2021/12/22 15:47:25;;;;;;;13.97;8.40;;;-2.50;96.30;;;;;;4885372;29;20422;-74
2021/12/22 15:49:51;;;;;;;18.67;9.47;;;-2.50;96.30;;;;;;4884910;29;20186;-74
2021/12/22 15:52:17;;;;;;;15.00;7.27;;;-2.60;96.30;;;;;;4883878;29;20682;-76
2021/12/22 15:54:43;;;;;;;16.60;8.47;;;-2.60;96.30;;;;;;4887783;29;20196;-76
2021/12/22 15:57:08;;;;;;;14.57;8.67;;;-2.60;96.30;;;;;;4886259;29;20225;-77
2021/12/22 15:59:34;;;;;;;88.97;49.17;;;-2.60;96.30;;;;;;4887488;29;20839;-77
2021/12/22 16:01:59;;;;;;;16.90;13.00;;;-2.60;96.30;;;;;;4884001;29;20211;-77
2021/12/22 16:04:25;;;;;;;9.60;6.00;;;-2.60;96.30;;;;;;4885687;29;20174;-77
2021/12/22 16:06:50;;;;;;;12.23;6.03;;;-2.60;96.30;;;;;;4884279;29;20571;-78
2021/12/22 16:09:16;;;;;;;10.20;7.87;;;-2.60;96.30;;;;;;4884928;29;20278;-78
2021/12/22 16:11:42;;;;;;;9.60;6.23;;;-2.70;96.30;;;;;;4883680;29;20214;-76
2021/12/22 16:14:08;;;;;;;8.47;5.80;;;-2.70;96.30;;;;;;4882694;29;21006;-79
2021/12/22 16:16:34;;;;;;;14.77;5.87;;;-2.70;96.30;;;;;;4886738;29;20724;-79
2021/12/22 16:18:59;;;;;;;10.70;7.70;;;-2.70;96.30;;;;;;4879474;29;20209;-79
2021/12/22 16:21:25;;;;;;;13.93;9.10;;;-2.70;96.30;;;;;;4879086;29;20198;-79
2021/12/22 16:23:51;;;;;;;40.57;19.77;;;-2.70;96.30;;;;;;4880561;29;20269;-79
2021/12/22 16:26:20;;;;;;;15.20;8.13;;;-2.80;96.30;;;;;;4881898;29;20542;-79
2021/12/22 16:28:45;;;;;;;22.57;12.10;;;-2.80;96.30;;;;;;4885527;29;20430;-78
2021/12/22 16:31:11;;;;;;;19.97;11.30;;;-2.70;96.30;;;;;;4888535;29;20455;-79
2021/12/22 16:33:37;;;;;;;17.37;9.70;;;-2.80;96.30;;;;;;4881984;29;20193;-79
2021/12/22 16:36:03;;;;;;;13.60;8.03;;;-2.80;96.30;;;;;;4880358;29;20945;-79
2021/12/22 16:38:29;;;;;;;15.97;9.70;;;-2.80;96.30;;;;;;4879092;29;20253;-78
2021/12/22 16:40:54;;;;;;;16.60;9.90;;;-2.80;96.30;;;;;;4883403;29;20453;-77
2021/12/22 16:43:20;;;;;;;19.50;10.20;;;-2.80;96.30;;;;;;4882142;29;20182;-78
2021/12/22 16:45:46;;;;;;;19.10;10.90;;;-2.80;96.30;;;;;;4884036;29;20178;-79
2021/12/22 16:48:11;;;;;;;24.93;14.20;;;-2.80;96.30;;;;;;4882469;29;21005;-79
2021/12/22 16:50:37;;;;;;;21.47;11.93;;;-2.90;96.30;;;;;;4879069;29;20202;-77
2021/12/22 16:53:04;;;;;;;21.03;11.10;;;-2.90;96.30;;;;;;4880180;29;20200;-77
2021/12/22 16:55:32;;;;;;;21.73;12.60;;;-3.00;96.30;;;;;;4879998;29;20426;-77
2021/12/22 16:58:01;;;;;;;14.70;8.80;;;-3.00;96.30;;;;;;4861298;29;20552;-77
2021/12/22 17:00:31;;;;;;;14.37;8.80;;;-3.10;96.30;;;;;;4881836;29;20428;-76
2021/12/22 17:02:57;;;;;;;16.20;9.87;;;-3.20;96.30;;;;;;4897540;29;20918;-76
2021/12/22 17:05:23;;;;;;;16.80;9.90;;;-3.20;96.30;;;;;;4879565;29;20433;-77
2021/12/22 17:07:49;;;;;;;20.37;10.80;;;-3.20;96.30;;;;;;4879507;29;20214;-77
2021/12/22 17:10:14;;;;;;;12.60;8.87;;;-3.20;96.30;;;;;;4880278;29;21027;-77
2021/12/22 17:12:41;;;;;;;17.20;10.33;;;-3.20;96.30;;;;;;4878509;29;20448;-76
2021/12/22 17:15:10;;;;;;;12.40;7.67;;;-3.20;96.30;;;;;;4879103;29;20209;-76
2021/12/22 17:17:36;;;;;;;15.50;7.43;;;-3.20;96.30;;;;;;4885487;29;20462;-76
2021/12/22 17:20:03;;;;;;;15.10;8.27;;;-3.20;96.30;;;;;;4878864;29;20430;-75
2021/12/22 17:22:28;;;;;;;15.77;9.70;;;-3.20;96.30;;;;;;4877335;29;20966;-76
2021/12/22 17:24:54;;;;;;;20.57;9.80;;;-3.20;96.30;;;;;;4890586;29;20437;-74